sensor_id;sensor_type;location;lat;lon;timestamp;temperature;humidity
75517;DHT22;64097;52.548;13.406;2023-03-01T06:05:25;4.90;56.20
75517;DHT22;64097;52.548;13.406;2023-03-01T06:07:51;4.90;56.40
75517;DHT22;64097;52.548;13.406;2023-03-01T06:10:19;4.90;56.30
75517;DHT22;64097;52.548;13.406;2023-03-01T06:12:45;4.90;56.70
75517;DHT22;64097;52.548;13.406;2023-03-01T06:15:13;4.90;56.90
75517;DHT22;64097;52.548;13.406;2023-03-01T06:17:41;4.90;57.00
75517;DHT22;64097;52.548;13.406;2023-03-01T06:20:12;4.90;57.60
75517;DHT22;64097;52.548;13.406;2023-03-01T06:22:39;4.90;57.00
75517;DHT22;64097;52.548;13.406;2023-03-01T06:25:05;4.90;57.00
75517;DHT22;64097;52.548;13.406;2023-03-01T06:27:31;4.90;57.00
75517;DHT22;64097;52.548;13.406;2023-03-01T06:29:57;4.90;57.00
75517;DHT22;64097;52.548;13.406;2023-03-01T06:32:23;4.90;57.00
75517;DHT22;64097;52.548;13.406;2023-03-01T06:34:49;4.90;57.00
75517;DHT22;64097;52.548;13.406;2023-03-01T06:37:15;5.00;57.00
75517;DHT22;64097;52.548;13.406;2023-03-01T06:39:41;4.90;57.00
75517;DHT22;64097;52.548;13.406;2023-03-01T06:42:08;5.00;57.00
75517;DHT22;64097;52.548;13.406;2023-03-01T06:44:36;5.00;56.90
75517;DHT22;64097;52.548;13.406;2023-03-01T06:47:02;5.00;56.80
75517;DHT22;64097;52.548;13.406;2023-03-01T06:49:28;5.00;56.80
75517;DHT22;64097;52.548;13.406;2023-03-01T06:51:54;5.00;56.80
75517;DHT22;64097;52.548;13.406;2023-03-01T06:54:20;5.10;56.80
75517;DHT22;64097;52.548;13.406;2023-03-01T06:56:48;5.10;56.90
75517;DHT22;64097;52.548;13.406;2023-03-01T06:59:15;5.10;56.90
75517;DHT22;64097;52.548;13.406;2023-03-01T07:01:41;5.10;56.80
75517;DHT22;64097;52.548;13.406;2023-03-01T07:04:07;5.20;57.00
75517;DHT22;64097;52.548;13.406;2023-03-01T07:06:33;5.20;57.00
75517;DHT22;64097;52.548;13.406;2023-03-01T07:08:59;5.20;57.00
75517;DHT22;64097;52.548;13.406;2023-03-01T07:11:24;5.30;57.20
75517;DHT22;64097;52.548;13.406;2023-03-01T07:13:50;5.30;57.10
75517;DHT22;64097;52.548;13.406;2023-03-01T07:16:16;5.30;57.10
75517;DHT22;64097;52.548;13.406;2023-03-01T07:18:42;5.30;57.10
75517;DHT22;64097;52.548;13.406;2023-03-01T07:21:12;5.40;57.00
75517;DHT22;64097;52.548;13.406;2023-03-01T07:23:38;5.40;57.20
75517;DHT22;64097;52.548;13.406;2023-03-01T07:26:03;5.50;57.00
75517;DHT22;64097;52.548;13.406;2023-03-01T07:28:29;5.50;57.20
75517;DHT22;64097;52.548;13.406;2023-03-01T07:31:01;5.50;57.30
75517;DHT22;64097;52.548;13.406;2023-03-01T07:33:27;5.50;57.30
75517;DHT22;64097;52.548;13.406;2023-03-01T07:36:00;5.60;57.20
75517;DHT22;64097;52.548;13.406;2023-03-01T07:38:26;5.60;56.80
75517;DHT22;64097;52.548;13.406;2023-03-01T07:40:52;5.60;56.60
75517;DHT22;64097;52.548;13.406;2023-03-01T07:43:18;5.60;56.50
75517;DHT22;64097;52.548;13.406;2023-03-01T07:45:44;5.70;56.40
75517;DHT22;64097;52.548;13.406;2023-03-01T07:48:10;5.80;56.20
75517;DHT22;64097;52.548;13.406;2023-03-01T07:50:36;5.80;55.90
75517;DHT22;64097;52.548;13.406;2023-03-01T07:53:01;5.90;55.70
75517;DHT22;64097;52.548;13.406;2023-03-01T07:55:28;5.90;55.40
75517;DHT22;64097;52.548;13.406;2023-03-01T07:57:53;6.00;55.10
75517;DHT22;64097;52.548;13.406;2023-03-01T08:00:19;6.00;54.70
75517;DHT22;64097;52.548;13.406;2023-03-01T08:02:45;6.10;54.30
75517;DHT22;64097;52.548;13.406;2023-03-01T08:05:11;6.10;54.20
75517;DHT22;64097;52.548;13.406;2023-03-01T08:07:37;6.10;54.10
75517;DHT22;64097;52.548;13.406;2023-03-01T08:10:03;6.20;54.10
75517;DHT22;64097;52.548;13.406;2023-03-01T08:12:29;6.20;54.00
75517;DHT22;64097;52.548;13.406;2023-03-01T08:14:55;6.30;54.10
75517;DHT22;64097;52.548;13.406;2023-03-01T08:17:20;6.30;54.20
75517;DHT22;64097;52.548;13.406;2023-03-01T08:19:46;6.40;53.80
75517;DHT22;64097;52.548;13.406;2023-03-01T08:22:12;6.40;53.50
75517;DHT22;64097;52.548;13.406;2023-03-01T08:24:37;6.40;53.30
75517;DHT22;64097;52.548;13.406;2023-03-01T08:27:03;6.50;53.30
75517;DHT22;64097;52.548;13.406;2023-03-01T08:29:32;6.50;53.20
75517;DHT22;64097;52.548;13.406;2023-03-01T08:31:58;6.60;53.00
75517;DHT22;64097;52.548;13.406;2023-03-01T08:34:24;6.60;52.80
75517;DHT22;64097;52.548;13.406;2023-03-01T08:36:50;6.70;52.90
75517;DHT22;64097;52.548;13.406;2023-03-01T08:39:19;6.70;52.80
75517;DHT22;64097;52.548;13.406;2023-03-01T08:41:46;6.80;52.60
75517;DHT22;64097;52.548;13.406;2023-03-01T08:44:13;6.80;52.70
75517;DHT22;64097;52.548;13.406;2023-03-01T08:46:43;6.90;52.40
75517;DHT22;64097;52.548;13.406;2023-03-01T08:49:18;7.00;52.10
75517;DHT22;64097;52.548;13.406;2023-03-01T08:51:46;7.00;51.80
75517;DHT22;64097;52.548;13.406;2023-03-01T08:54:14;7.00;51.90
75517;DHT22;64097;52.548;13.406;2023-03-01T08:56:41;7.10;51.80
75517;DHT22;64097;52.548;13.406;2023-03-01T08:59:07;7.20;51.60
75517;DHT22;64097;52.548;13.406;2023-03-01T09:01:34;7.20;51.70
75517;DHT22;64097;52.548;13.406;2023-03-01T09:04:01;7.30;51.60
75517;DHT22;64097;52.548;13.406;2023-03-01T09:06:30;7.30;51.50
75517;DHT22;64097;52.548;13.406;2023-03-01T09:08:56;7.40;51.50
75517;DHT22;64097;52.548;13.406;2023-03-01T09:11:22;7.40;51.40
75517;DHT22;64097;52.548;13.406;2023-03-01T09:13:49;7.50;51.10
75517;DHT22;64097;52.548;13.406;2023-03-01T09:16:16;7.50;50.80
75517;DHT22;64097;52.548;13.406;2023-03-01T09:18:43;7.60;50.70
75517;DHT22;64097;52.548;13.406;2023-03-01T09:21:12;7.60;50.70
75517;DHT22;64097;52.548;13.406;2023-03-01T09:23:40;7.60;50.60
75517;DHT22;64097;52.548;13.406;2023-03-01T09:26:07;7.60;50.20
75517;DHT22;64097;52.548;13.406;2023-03-01T09:28:35;7.70;50.30
75517;DHT22;64097;52.548;13.406;2023-03-01T09:31:05;7.70;50.20
75517;DHT22;64097;52.548;13.406;2023-03-01T09:33:32;7.80;50.10
75517;DHT22;64097;52.548;13.406;2023-03-01T09:36:04;7.80;49.90
75517;DHT22;64097;52.548;13.406;2023-03-01T09:38:30;7.80;49.80
75517;DHT22;64097;52.548;13.406;2023-03-01T09:40:56;7.90;49.90
75517;DHT22;64097;52.548;13.406;2023-03-01T09:43:34;7.90;49.80
75517;DHT22;64097;52.548;13.406;2023-03-01T09:46:09;8.00;49.80
75517;DHT22;64097;52.548;13.406;2023-03-01T09:48:44;8.00;49.40
75517;DHT22;64097;52.548;13.406;2023-03-01T09:51:23;8.00;49.10
75517;DHT22;64097;52.548;13.406;2023-03-01T09:53:51;8.10;48.90
75517;DHT22;64097;52.548;13.406;2023-03-01T09:59:15;8.10;48.60
75517;DHT22;64097;52.548;13.406;2023-03-01T10:04:32;8.20;48.20
75517;DHT22;64097;52.548;13.406;2023-03-01T10:09:41;8.30;48.30
75517;DHT22;64097;52.548;13.406;2023-03-01T10:12:23;8.40;47.60
75517;DHT22;64097;52.548;13.406;2023-03-01T10:20:13;8.50;47.00
75517;DHT22;64097;52.548;13.406;2023-03-01T10:22:39;8.50;46.20
75517;DHT22;64097;52.548;13.406;2023-03-01T10:25:05;8.50;46.10
75517;DHT22;64097;52.548;13.406;2023-03-01T10:27:53;8.50;46.60
75517;DHT22;64097;52.548;13.406;2023-03-01T10:30:39;8.50;46.30
75517;DHT22;64097;52.548;13.406;2023-03-01T10:33:29;8.50;45.90
75517;DHT22;64097;52.548;13.406;2023-03-01T10:35:56;8.60;46.10
75517;DHT22;64097;52.548;13.406;2023-03-01T10:38:22;8.60;45.50
75517;DHT22;64097;52.548;13.406;2023-03-01T10:41:06;8.60;45.20
75517;DHT22;64097;52.548;13.406;2023-03-01T10:43:50;8.60;44.90
75517;DHT22;64097;52.548;13.406;2023-03-01T10:46:29;8.60;44.90
75517;DHT22;64097;52.548;13.406;2023-03-01T10:49:14;8.70;45.00
75517;DHT22;64097;52.548;13.406;2023-03-01T10:51:42;8.70;44.90
75517;DHT22;64097;52.548;13.406;2023-03-01T10:54:28;8.80;44.80
75517;DHT22;64097;52.548;13.406;2023-03-01T10:57:00;8.80;44.50
75517;DHT22;64097;52.548;13.406;2023-03-01T10:59:34;8.80;44.20
75517;DHT22;64097;52.548;13.406;2023-03-01T11:07:23;8.90;44.00
75517;DHT22;64097;52.548;13.406;2023-03-01T11:09:49;8.90;44.10
75517;DHT22;64097;52.548;13.406;2023-03-01T11:12:15;9.00;44.00
75517;DHT22;64097;52.548;13.406;2023-03-01T11:14:56;9.00;43.50
75517;DHT22;64097;52.548;13.406;2023-03-01T11:17:32;9.00;43.40
75517;DHT22;64097;52.548;13.406;2023-03-01T11:20:05;9.10;43.60
75517;DHT22;64097;52.548;13.406;2023-03-01T11:22:33;9.10;42.80
75517;DHT22;64097;52.548;13.406;2023-03-01T11:25:00;9.10;43.10
75517;DHT22;64097;52.548;13.406;2023-03-01T11:27:31;9.10;43.30
75517;DHT22;64097;52.548;13.406;2023-03-01T11:32:38;9.20;43.00
75517;DHT22;64097;52.548;13.406;2023-03-01T11:35:18;9.20;41.60
75517;DHT22;64097;52.548;13.406;2023-03-01T11:40:41;9.30;40.70
75517;DHT22;64097;52.548;13.406;2023-03-01T11:57:59;9.40;41.30
75517;DHT22;64097;52.548;13.406;2023-03-01T12:00:05;9.40;41.50
75517;DHT22;64097;52.548;13.406;2023-03-01T12:11:01;9.50;39.30
75517;DHT22;64097;52.548;13.406;2023-03-01T12:13:50;9.50;39.00
75517;DHT22;64097;52.548;13.406;2023-03-01T12:24:34;9.70;38.20
75517;DHT22;64097;52.548;13.406;2023-03-01T12:38:42;9.80;38.70
75517;DHT22;64097;52.548;13.406;2023-03-01T12:44:54;9.80;37.90
75517;DHT22;64097;52.548;13.406;2023-03-01T12:49:45;9.80;37.60
75517;DHT22;64097;52.548;13.406;2023-03-01T12:54:55;9.90;37.40
75517;DHT22;64097;52.548;13.406;2023-03-01T12:57:52;9.90;37.10
75517;DHT22;64097;52.548;13.406;2023-03-01T13:00:40;9.90;36.60
75517;DHT22;64097;52.548;13.406;2023-03-01T13:03:18;9.90;36.70
75517;DHT22;64097;52.548;13.406;2023-03-01T13:11:19;10.00;37.40
75517;DHT22;64097;52.548;13.406;2023-03-01T13:13:46;10.00;37.10
75517;DHT22;64097;52.548;13.406;2023-03-01T13:16:38;10.00;37.20
75517;DHT22;64097;52.548;13.406;2023-03-01T13:19:17;10.10;37.40
75517;DHT22;64097;52.548;13.406;2023-03-01T13:21:44;10.10;36.10
75517;DHT22;64097;52.548;13.406;2023-03-01T13:24:43;10.10;36.00
75517;DHT22;64097;52.548;13.406;2023-03-01T13:27:22;10.10;35.50
75517;DHT22;64097;52.548;13.406;2023-03-01T13:29:57;10.10;35.10
75517;DHT22;64097;52.548;13.406;2023-03-01T13:32:32;10.10;35.30
75517;DHT22;64097;52.548;13.406;2023-03-01T13:37:33;10.20;35.60
75517;DHT22;64097;52.548;13.406;2023-03-01T13:40:05;10.20;35.20
75517;DHT22;64097;52.548;13.406;2023-03-01T13:42:43;10.20;35.40
75517;DHT22;64097;52.548;13.406;2023-03-01T13:45:25;10.20;35.30
75517;DHT22;64097;52.548;13.406;2023-03-01T13:48:07;10.20;35.20
75517;DHT22;64097;52.548;13.406;2023-03-01T13:50:38;10.20;35.50
75517;DHT22;64097;52.548;13.406;2023-03-01T13:53:14;10.20;35.50
75517;DHT22;64097;52.548;13.406;2023-03-01T13:55:53;10.30;35.90
75517;DHT22;64097;52.548;13.406;2023-03-01T13:58:33;10.30;36.10
